sensor_id;sensor_type;location;lat;lon;timestamp;P1;durP1;ratioP1;P2;durP2;ratioP2
71435;SDS011;59251;51.326;12.370;2023-10-08T00:00:23;10.98;;;3.00;;
71435;SDS011;59251;51.326;12.370;2023-10-08T00:03:10;11.73;;;3.30;;
71435;SDS011;59251;51.326;12.370;2023-10-08T00:05:37;11.40;;;3.17;;
71435;SDS011;59251;51.326;12.370;2023-10-08T00:08:04;8.57;;;2.97;;
71435;SDS011;59251;51.326;12.370;2023-10-08T00:10:33;9.38;;;2.95;;
71435;SDS011;59251;51.326;12.370;2023-10-08T00:13:00;11.55;;;2.80;;
71435;SDS011;59251;51.326;12.370;2023-10-08T00:15:27;12.55;;;3.30;;
71435;SDS011;59251;51.326;12.370;2023-10-08T00:17:53;11.77;;;3.53;;
71435;SDS011;59251;51.326;12.370;2023-10-08T00:20:24;11.45;;;3.25;;
71435;SDS011;59251;51.326;12.370;2023-10-08T00:23:00;9.95;;;3.28;;
71435;SDS011;59251;51.326;12.370;2023-10-08T00:25:32;11.07;;;3.38;;
71435;SDS011;59251;51.326;12.370;2023-10-08T00:28:06;12.13;;;3.75;;
71435;SDS011;59251;51.326;12.370;2023-10-08T00:30:38;9.80;;;3.23;;
71435;SDS011;59251;51.326;12.370;2023-10-08T00:33:06;10.02;;;3.63;;
71435;SDS011;59251;51.326;12.370;2023-10-08T00:35:38;9.98;;;3.63;;
71435;SDS011;59251;51.326;12.370;2023-10-08T00:38:05;12.45;;;3.90;;
71435;SDS011;59251;51.326;12.370;2023-10-08T00:40:36;10.32;;;3.17;;
71435;SDS011;59251;51.326;12.370;2023-10-08T00:43:03;11.37;;;4.03;;
71435;SDS011;59251;51.326;12.370;2023-10-08T00:45:35;12.93;;;3.65;;
71435;SDS011;59251;51.326;12.370;2023-10-08T00:48:07;12.23;;;4.00;;
71435;SDS011;59251;51.326;12.370;2023-10-08T00:50:35;12.00;;;3.95;;
71435;SDS011;59251;51.326;12.370;2023-10-08T00:53:10;11.88;;;3.28;;
71435;SDS011;59251;51.326;12.370;2023-10-08T00:55:42;10.00;;;3.80;;
71435;SDS011;59251;51.326;12.370;2023-10-08T00:58:15;11.82;;;3.85;;
71435;SDS011;59251;51.326;12.370;2023-10-08T01:00:49;9.88;;;3.85;;
71435;SDS011;59251;51.326;12.370;2023-10-08T01:03:18;10.13;;;3.50;;
71435;SDS011;59251;51.326;12.370;2023-10-08T01:05:44;12.20;;;3.72;;
71435;SDS011;59251;51.326;12.370;2023-10-08T01:08:14;11.63;;;3.97;;
71435;SDS011;59251;51.326;12.370;2023-10-08T01:10:48;12.27;;;3.60;;
71435;SDS011;59251;51.326;12.370;2023-10-08T01:13:23;10.68;;;3.97;;
71435;SDS011;59251;51.326;12.370;2023-10-08T01:15:52;10.13;;;3.92;;
71435;SDS011;59251;51.326;12.370;2023-10-08T01:18:20;11.35;;;4.25;;
71435;SDS011;59251;51.326;12.370;2023-10-08T01:20:54;12.37;;;4.20;;
71435;SDS011;59251;51.326;12.370;2023-10-08T01:23:23;10.40;;;4.47;;
71435;SDS011;59251;51.326;12.370;2023-10-08T01:25:52;11.23;;;4.65;;
71435;SDS011;59251;51.326;12.370;2023-10-08T01:28:27;12.25;;;4.70;;
71435;SDS011;59251;51.326;12.370;2023-10-08T01:30:54;12.60;;;3.42;;
71435;SDS011;59251;51.326;12.370;2023-10-08T01:33:25;11.07;;;4.07;;
71435;SDS011;59251;51.326;12.370;2023-10-08T01:35:53;12.57;;;4.05;;
71435;SDS011;59251;51.326;12.370;2023-10-08T01:38:20;10.55;;;4.13;;
71435;SDS011;59251;51.326;12.370;2023-10-08T01:40:50;9.48;;;3.38;;
71435;SDS011;59251;51.326;12.370;2023-10-08T01:43:17;10.65;;;3.40;;
71435;SDS011;59251;51.326;12.370;2023-10-08T01:45:45;7.23;;;2.47;;
71435;SDS011;59251;51.326;12.370;2023-10-08T01:48:13;6.70;;;2.30;;
71435;SDS011;59251;51.326;12.370;2023-10-08T01:50:45;6.78;;;1.70;;
71435;SDS011;59251;51.326;12.370;2023-10-08T01:53:12;5.25;;;0.93;;
71435;SDS011;59251;51.326;12.370;2023-10-08T01:55:40;5.90;;;0.98;;
71435;SDS011;59251;51.326;12.370;2023-10-08T01:58:17;3.50;;;0.60;;
71435;SDS011;59251;51.326;12.370;2023-10-08T02:00:45;2.92;;;0.40;;
71435;SDS011;59251;51.326;12.370;2023-10-08T02:03:14;3.05;;;0.47;;
71435;SDS011;59251;51.326;12.370;2023-10-08T02:05:43;1.98;;;0.30;;
71435;SDS011;59251;51.326;12.370;2023-10-08T02:08:10;1.83;;;0.30;;
71435;SDS011;59251;51.326;12.370;2023-10-08T02:10:38;1.40;;;0.20;;
71435;SDS011;59251;51.326;12.370;2023-10-08T02:13:05;1.35;;;0.20;;
71435;SDS011;59251;51.326;12.370;2023-10-08T02:15:35;1.98;;;0.20;;
71435;SDS011;59251;51.326;12.370;2023-10-08T02:18:04;2.25;;;0.20;;
71435;SDS011;59251;51.326;12.370;2023-10-08T02:20:32;3.55;;;0.20;;
71435;SDS011;59251;51.326;12.370;2023-10-08T02:22:59;1.33;;;0.20;;
71435;SDS011;59251;51.326;12.370;2023-10-08T02:25:26;0.90;;;0.10;;
71435;SDS011;59251;51.326;12.370;2023-10-08T02:27:52;1.25;;;0.10;;
71435;SDS011;59251;51.326;12.370;2023-10-08T02:30:19;1.35;;;0.20;;
71435;SDS011;59251;51.326;12.370;2023-10-08T02:32:47;0.63;;;0.10;;
71435;SDS011;59251;51.326;12.370;2023-10-08T02:35:14;0.80;;;0.10;;
71435;SDS011;59251;51.326;12.370;2023-10-08T02:37:41;1.00;;;0.20;;
71435;SDS011;59251;51.326;12.370;2023-10-08T02:40:11;1.02;;;0.15;;
71435;SDS011;59251;51.326;12.370;2023-10-08T02:42:44;1.40;;;0.20;;
71435;SDS011;59251;51.326;12.370;2023-10-08T02:45:13;1.67;;;0.20;;
71435;SDS011;59251;51.326;12.370;2023-10-08T02:47:41;0.70;;;0.10;;
71435;SDS011;59251;51.326;12.370;2023-10-08T02:50:11;1.00;;;0.10;;
71435;SDS011;59251;51.326;12.370;2023-10-08T02:52:42;2.03;;;0.20;;
71435;SDS011;59251;51.326;12.370;2023-10-08T02:55:11;1.42;;;0.20;;
71435;SDS011;59251;51.326;12.370;2023-10-08T02:57:49;1.30;;;0.20;;
71435;SDS011;59251;51.326;12.370;2023-10-08T03:00:17;1.90;;;0.20;;
71435;SDS011;59251;51.326;12.370;2023-10-08T03:02:45;1.60;;;0.20;;
71435;SDS011;59251;51.326;12.370;2023-10-08T03:05:14;1.17;;;0.10;;
71435;SDS011;59251;51.326;12.370;2023-10-08T03:07:43;2.97;;;0.40;;
71435;SDS011;59251;51.326;12.370;2023-10-08T03:10:10;3.08;;;0.47;;
71435;SDS011;59251;51.326;12.370;2023-10-08T03:12:44;3.63;;;0.43;;
71435;SDS011;59251;51.326;12.370;2023-10-08T03:15:12;3.30;;;0.50;;
71435;SDS011;59251;51.326;12.370;2023-10-08T03:17:53;3.85;;;0.50;;
71435;SDS011;59251;51.326;12.370;2023-10-08T03:20:23;4.07;;;0.40;;
71435;SDS011;59251;51.326;12.370;2023-10-08T03:23:07;2.25;;;0.30;;
71435;SDS011;59251;51.326;12.370;2023-10-08T03:25:38;1.42;;;0.20;;
71435;SDS011;59251;51.326;12.370;2023-10-08T03:28:07;1.60;;;0.20;;
71435;SDS011;59251;51.326;12.370;2023-10-08T03:30:38;2.17;;;0.20;;
71435;SDS011;59251;51.326;12.370;2023-10-08T03:33:16;0.90;;;0.10;;
71435;SDS011;59251;51.326;12.370;2023-10-08T03:35:49;1.02;;;0.17;;
71435;SDS011;59251;51.326;12.370;2023-10-08T03:38:18;1.50;;;0.20;;
71435;SDS011;59251;51.326;12.370;2023-10-08T03:40:53;0.73;;;0.10;;
71435;SDS011;59251;51.326;12.370;2023-10-08T03:43:22;1.15;;;0.10;;
71435;SDS011;59251;51.326;12.370;2023-10-08T03:45:58;1.00;;;0.10;;
71435;SDS011;59251;51.326;12.370;2023-10-08T03:48:30;1.08;;;0.20;;
71435;SDS011;59251;51.326;12.370;2023-10-08T03:51:03;1.15;;;0.10;;
71435;SDS011;59251;51.326;12.370;2023-10-08T03:53:36;1.27;;;0.10;;
71435;SDS011;59251;51.326;12.370;2023-10-08T03:56:17;1.25;;;0.10;;
71435;SDS011;59251;51.326;12.370;2023-10-08T03:58:44;1.13;;;0.10;;
71435;SDS011;59251;51.326;12.370;2023-10-08T04:01:12;1.27;;;0.10;;
71435;SDS011;59251;51.326;12.370;2023-10-08T04:03:44;3.05;;;0.20;;
71435;SDS011;59251;51.326;12.370;2023-10-08T04:06:26;1.30;;;0.20;;
71435;SDS011;59251;51.326;12.370;2023-10-08T04:09:03;2.17;;;0.20;;
71435;SDS011;59251;51.326;12.370;2023-10-08T04:11:49;2.15;;;0.30;;
71435;SDS011;59251;51.326;12.370;2023-10-08T04:14:21;3.03;;;0.20;;
71435;SDS011;59251;51.326;12.370;2023-10-08T04:16:49;2.22;;;0.30;;
71435;SDS011;59251;51.326;12.370;2023-10-08T04:19:17;2.20;;;0.30;;
71435;SDS011;59251;51.326;12.370;2023-10-08T04:21:47;3.80;;;0.60;;
71435;SDS011;59251;51.326;12.370;2023-10-08T04:24:20;3.75;;;0.80;;
71435;SDS011;59251;51.326;12.370;2023-10-08T04:26:53;4.00;;;0.90;;
71435;SDS011;59251;51.326;12.370;2023-10-08T04:29:22;3.83;;;0.70;;
71435;SDS011;59251;51.326;12.370;2023-10-08T04:31:49;4.50;;;0.82;;
71435;SDS011;59251;51.326;12.370;2023-10-08T04:34:26;4.80;;;0.98;;
71435;SDS011;59251;51.326;12.370;2023-10-08T04:36:54;4.95;;;0.90;;
71435;SDS011;59251;51.326;12.370;2023-10-08T04:39:26;6.22;;;1.15;;
71435;SDS011;59251;51.326;12.370;2023-10-08T04:41:58;4.72;;;1.00;;
71435;SDS011;59251;51.326;12.370;2023-10-08T04:44:30;5.07;;;1.10;;
71435;SDS011;59251;51.326;12.370;2023-10-08T04:46:58;10.98;;;1.38;;
71435;SDS011;59251;51.326;12.370;2023-10-08T04:49:30;4.40;;;1.00;;
71435;SDS011;59251;51.326;12.370;2023-10-08T04:52:00;4.75;;;0.95;;
71435;SDS011;59251;51.326;12.370;2023-10-08T04:54:30;5.95;;;0.90;;
71435;SDS011;59251;51.326;12.370;2023-10-08T04:57:00;4.05;;;0.60;;
71435;SDS011;59251;51.326;12.370;2023-10-08T04:59:31;4.45;;;0.50;;
71435;SDS011;59251;51.326;12.370;2023-10-08T05:02:01;4.90;;;0.50;;
71435;SDS011;59251;51.326;12.370;2023-10-08T05:04:44;2.97;;;0.45;;
71435;SDS011;59251;51.326;12.370;2023-10-08T05:07:23;4.53;;;0.50;;
71435;SDS011;59251;51.326;12.370;2023-10-08T05:10:22;4.95;;;0.70;;
71435;SDS011;59251;51.326;12.370;2023-10-08T05:13:06;5.68;;;0.80;;
71435;SDS011;59251;51.326;12.370;2023-10-08T05:15:41;5.25;;;0.65;;
71435;SDS011;59251;51.326;12.370;2023-10-08T05:18:15;6.40;;;0.82;;
71435;SDS011;59251;51.326;12.370;2023-10-08T05:20:49;5.03;;;0.85;;
71435;SDS011;59251;51.326;12.370;2023-10-08T05:23:26;6.20;;;1.00;;
71435;SDS011;59251;51.326;12.370;2023-10-08T05:26:10;5.78;;;0.80;;
71435;SDS011;59251;51.326;12.370;2023-10-08T05:28:45;5.78;;;0.90;;
71435;SDS011;59251;51.326;12.370;2023-10-08T05:31:25;5.07;;;0.80;;
71435;SDS011;59251;51.326;12.370;2023-10-08T05:34:11;4.45;;;0.70;;
71435;SDS011;59251;51.326;12.370;2023-10-08T05:36:43;5.00;;;0.70;;
71435;SDS011;59251;51.326;12.370;2023-10-08T05:39:37;5.20;;;0.80;;
71435;SDS011;59251;51.326;12.370;2023-10-08T05:42:07;8.07;;;1.15;;
71435;SDS011;59251;51.326;12.370;2023-10-08T05:44:42;5.00;;;0.75;;
71435;SDS011;59251;51.326;12.370;2023-10-08T05:47:11;6.20;;;0.70;;
71435;SDS011;59251;51.326;12.370;2023-10-08T05:50:04;5.45;;;0.73;;
71435;SDS011;59251;51.326;12.370;2023-10-08T05:52:49;7.00;;;0.90;;
71435;SDS011;59251;51.326;12.370;2023-10-08T05:55:31;6.28;;;0.90;;
71435;SDS011;59251;51.326;12.370;2023-10-08T05:58:02;5.20;;;0.80;;
71435;SDS011;59251;51.326;12.370;2023-10-08T06:00:40;8.07;;;1.00;;
71435;SDS011;59251;51.326;12.370;2023-10-08T06:03:30;4.85;;;0.73;;
71435;SDS011;59251;51.326;12.370;2023-10-08T06:06:02;6.68;;;0.80;;
71435;SDS011;59251;51.326;12.370;2023-10-08T06:08:48;8.18;;;1.23;;
71435;SDS011;59251;51.326;12.370;2023-10-08T06:11:18;6.53;;;0.82;;
71435;SDS011;59251;51.326;12.370;2023-10-08T06:14:02;4.38;;;0.70;;
71435;SDS011;59251;51.326;12.370;2023-10-08T06:16:38;5.10;;;0.55;;
71435;SDS011;59251;51.326;12.370;2023-10-08T06:19:07;4.38;;;0.60;;
71435;SDS011;59251;51.326;12.370;2023-10-08T06:21:35;5.63;;;0.73;;
71435;SDS011;59251;51.326;12.370;2023-10-08T06:24:02;4.85;;;0.82;;
71435;SDS011;59251;51.326;12.370;2023-10-08T06:26:35;7.60;;;1.30;;
71435;SDS011;59251;51.326;12.370;2023-10-08T06:29:08;6.72;;;0.95;;
71435;SDS011;59251;51.326;12.370;2023-10-08T06:31:51;5.78;;;0.80;;
71435;SDS011;59251;51.326;12.370;2023-10-08T06:34:20;6.38;;;0.90;;
71435;SDS011;59251;51.326;12.370;2023-10-08T06:36:48;6.57;;;0.90;;
71435;SDS011;59251;51.326;12.370;2023-10-08T06:39:19;6.05;;;1.05;;
71435;SDS011;59251;51.326;12.370;2023-10-08T06:41:52;7.78;;;1.77;;
71435;SDS011;59251;51.326;12.370;2023-10-08T06:44:26;6.22;;;0.80;;
71435;SDS011;59251;51.326;12.370;2023-10-08T06:46:54;7.88;;;1.02;;
71435;SDS011;59251;51.326;12.370;2023-10-08T06:49:21;7.88;;;1.40;;
71435;SDS011;59251;51.326;12.370;2023-10-08T06:51:50;8.27;;;1.40;;
71435;SDS011;59251;51.326;12.370;2023-10-08T06:54:19;8.32;;;1.55;;
71435;SDS011;59251;51.326;12.370;2023-10-08T06:56:47;8.15;;;1.50;;
71435;SDS011;59251;51.326;12.370;2023-10-08T06:59:18;7.95;;;1.95;;
71435;SDS011;59251;51.326;12.370;2023-10-08T07:01:47;9.32;;;2.00;;
71435;SDS011;59251;51.326;12.370;2023-10-08T07:04:16;8.32;;;1.90;;
71435;SDS011;59251;51.326;12.370;2023-10-08T07:06:44;8.30;;;1.80;;
71435;SDS011;59251;51.326;12.370;2023-10-08T07:09:12;9.57;;;1.90;;
71435;SDS011;59251;51.326;12.370;2023-10-08T07:11:54;7.68;;;1.50;;
71435;SDS011;59251;51.326;12.370;2023-10-08T07:14:22;7.60;;;1.67;;
71435;SDS011;59251;51.326;12.370;2023-10-08T07:16:52;10.32;;;1.77;;
71435;SDS011;59251;51.326;12.370;2023-10-08T07:19:20;10.18;;;1.67;;
71435;SDS011;59251;51.326;12.370;2023-10-08T07:21:49;6.75;;;1.20;;
71435;SDS011;59251;51.326;12.370;2023-10-08T07:24:19;8.57;;;1.30;;
71435;SDS011;59251;51.326;12.370;2023-10-08T07:26:47;9.93;;;1.40;;
71435;SDS011;59251;51.326;12.370;2023-10-08T07:29:15;11.25;;;1.67;;
71435;SDS011;59251;51.326;12.370;2023-10-08T07:31:44;8.82;;;1.15;;
71435;SDS011;59251;51.326;12.370;2023-10-08T07:34:14;8.65;;;1.00;;
71435;SDS011;59251;51.326;12.370;2023-10-08T07:36:51;7.05;;;1.00;;
71435;SDS011;59251;51.326;12.370;2023-10-08T07:39:19;9.00;;;1.35;;
71435;SDS011;59251;51.326;12.370;2023-10-08T07:41:52;9.63;;;0.98;;
71435;SDS011;59251;51.326;12.370;2023-10-08T07:44:20;9.00;;;1.42;;
71435;SDS011;59251;51.326;12.370;2023-10-08T07:46:49;6.50;;;1.00;;
71435;SDS011;59251;51.326;12.370;2023-10-08T07:49:16;8.73;;;1.27;;
71435;SDS011;59251;51.326;12.370;2023-10-08T07:51:43;8.27;;;0.88;;
71435;SDS011;59251;51.326;12.370;2023-10-08T07:54:16;5.78;;;0.90;;
71435;SDS011;59251;51.326;12.370;2023-10-08T07:56:44;7.60;;;0.90;;
71435;SDS011;59251;51.326;12.370;2023-10-08T07:59:12;8.65;;;1.08;;
71435;SDS011;59251;51.326;12.370;2023-10-08T08:01:40;5.85;;;0.90;;
71435;SDS011;59251;51.326;12.370;2023-10-08T08:04:08;8.38;;;1.20;;
71435;SDS011;59251;51.326;12.370;2023-10-08T08:06:40;6.07;;;0.80;;
71435;SDS011;59251;51.326;12.370;2023-10-08T08:09:07;7.47;;;1.20;;
71435;SDS011;59251;51.326;12.370;2023-10-08T08:11:43;6.32;;;1.10;;
71435;SDS011;59251;51.326;12.370;2023-10-08T08:14:11;7.85;;;1.30;;
71435;SDS011;59251;51.326;12.370;2023-10-08T08:16:42;8.52;;;1.23;;
71435;SDS011;59251;51.326;12.370;2023-10-08T08:19:14;9.43;;;1.10;;
71435;SDS011;59251;51.326;12.370;2023-10-08T08:21:42;7.40;;;1.00;;
71435;SDS011;59251;51.326;12.370;2023-10-08T08:24:11;9.02;;;1.45;;
71435;SDS011;59251;51.326;12.370;2023-10-08T08:26:38;11.63;;;1.90;;
71435;SDS011;59251;51.326;12.370;2023-10-08T08:29:09;9.13;;;1.52;;
71435;SDS011;59251;51.326;12.370;2023-10-08T08:31:40;9.13;;;1.30;;
71435;SDS011;59251;51.326;12.370;2023-10-08T08:34:11;8.82;;;1.38;;
71435;SDS011;59251;51.326;12.370;2023-10-08T08:36:46;8.40;;;1.20;;
71435;SDS011;59251;51.326;12.370;2023-10-08T08:39:14;9.30;;;1.73;;
71435;SDS011;59251;51.326;12.370;2023-10-08T08:41:54;8.20;;;1.85;;
71435;SDS011;59251;51.326;12.370;2023-10-08T08:44:27;7.88;;;2.10;;
71435;SDS011;59251;51.326;12.370;2023-10-08T08:46:55;8.55;;;1.25;;
71435;SDS011;59251;51.326;12.370;2023-10-08T08:49:24;8.63;;;2.25;;
71435;SDS011;59251;51.326;12.370;2023-10-08T08:51:54;9.15;;;1.58;;
71435;SDS011;59251;51.326;12.370;2023-10-08T08:54:26;7.82;;;1.17;;
71435;SDS011;59251;51.326;12.370;2023-10-08T08:56:55;8.38;;;1.30;;
71435;SDS011;59251;51.326;12.370;2023-10-08T08:59:25;9.98;;;1.67;;
71435;SDS011;59251;51.326;12.370;2023-10-08T09:01:56;8.40;;;1.55;;
71435;SDS011;59251;51.326;12.370;2023-10-08T09:04:29;8.70;;;2.17;;
71435;SDS011;59251;51.326;12.370;2023-10-08T09:06:59;8.98;;;1.55;;
71435;SDS011;59251;51.326;12.370;2023-10-08T09:09:32;6.78;;;1.35;;
71435;SDS011;59251;51.326;12.370;2023-10-08T09:11:59;9.85;;;2.03;;
71435;SDS011;59251;51.326;12.370;2023-10-08T09:14:26;7.22;;;1.40;;
71435;SDS011;59251;51.326;12.370;2023-10-08T09:16:57;6.38;;;1.40;;
71435;SDS011;59251;51.326;12.370;2023-10-08T09:19:25;9.65;;;1.67;;
71435;SDS011;59251;51.326;12.370;2023-10-08T09:22:03;8.73;;;1.52;;
71435;SDS011;59251;51.326;12.370;2023-10-08T09:24:31;8.15;;;1.40;;
71435;SDS011;59251;51.326;12.370;2023-10-08T09:27:01;6.07;;;1.48;;
71435;SDS011;59251;51.326;12.370;2023-10-08T09:29:29;9.50;;;1.85;;
71435;SDS011;59251;51.326;12.370;2023-10-08T09:31:56;10.15;;;1.70;;
71435;SDS011;59251;51.326;12.370;2023-10-08T09:34:26;6.85;;;1.60;;
71435;SDS011;59251;51.326;12.370;2023-10-08T09:36:55;7.35;;;1.63;;
71435;SDS011;59251;51.326;12.370;2023-10-08T09:39:24;9.70;;;1.58;;
71435;SDS011;59251;51.326;12.370;2023-10-08T09:41:53;8.70;;;2.25;;
71435;SDS011;59251;51.326;12.370;2023-10-08T09:44:21;10.52;;;2.40;;
71435;SDS011;59251;51.326;12.370;2023-10-08T09:46:51;10.50;;;2.25;;
71435;SDS011;59251;51.326;12.370;2023-10-08T09:49:23;12.77;;;2.20;;
71435;SDS011;59251;51.326;12.370;2023-10-08T09:51:55;8.50;;;2.33;;
71435;SDS011;59251;51.326;12.370;2023-10-08T09:54:26;8.55;;;2.50;;
71435;SDS011;59251;51.326;12.370;2023-10-08T09:56:57;11.15;;;2.60;;
71435;SDS011;59251;51.326;12.370;2023-10-08T09:59:25;8.38;;;2.40;;
71435;SDS011;59251;51.326;12.370;2023-10-08T10:01:54;6.95;;;2.30;;
71435;SDS011;59251;51.326;12.370;2023-10-08T10:04:24;10.63;;;3.35;;
71435;SDS011;59251;51.326;12.370;2023-10-08T10:06:53;10.57;;;3.13;;
71435;SDS011;59251;51.326;12.370;2023-10-08T10:09:25;9.07;;;2.83;;
71435;SDS011;59251;51.326;12.370;2023-10-08T10:11:53;9.45;;;2.92;;
71435;SDS011;59251;51.326;12.370;2023-10-08T10:14:22;9.65;;;2.72;;
71435;SDS011;59251;51.326;12.370;2023-10-08T10:17:04;10.38;;;2.60;;
71435;SDS011;59251;51.326;12.370;2023-10-08T10:19:36;7.15;;;2.25;;
71435;SDS011;59251;51.326;12.370;2023-10-08T10:22:03;9.65;;;2.40;;
71435;SDS011;59251;51.326;12.370;2023-10-08T10:24:35;8.18;;;2.58;;
71435;SDS011;59251;51.326;12.370;2023-10-08T10:27:09;10.15;;;2.50;;
71435;SDS011;59251;51.326;12.370;2023-10-08T10:29:37;8.13;;;2.60;;
71435;SDS011;59251;51.326;12.370;2023-10-08T10:32:04;11.82;;;3.00;;
71435;SDS011;59251;51.326;12.370;2023-10-08T10:34:31;12.63;;;3.13;;
71435;SDS011;59251;51.326;12.370;2023-10-08T10:37:00;11.32;;;3.03;;
71435;SDS011;59251;51.326;12.370;2023-10-08T10:39:35;8.85;;;2.28;;
71435;SDS011;59251;51.326;12.370;2023-10-08T10:42:05;9.35;;;2.72;;
71435;SDS011;59251;51.326;12.370;2023-10-08T10:44:45;10.20;;;2.50;;
71435;SDS011;59251;51.326;12.370;2023-10-08T10:47:14;11.23;;;2.65;;
71435;SDS011;59251;51.326;12.370;2023-10-08T10:50:08;11.45;;;2.55;;
71435;SDS011;59251;51.326;12.370;2023-10-08T10:52:51;13.77;;;4.40;;
71435;SDS011;59251;51.326;12.370;2023-10-08T10:55:20;13.07;;;2.83;;
71435;SDS011;59251;51.326;12.370;2023-10-08T10:57:48;9.55;;;3.00;;
71435;SDS011;59251;51.326;12.370;2023-10-08T11:00:27;8.50;;;2.92;;
71435;SDS011;59251;51.326;12.370;2023-10-08T11:03:08;7.93;;;2.63;;
71435;SDS011;59251;51.326;12.370;2023-10-08T11:05:49;9.43;;;2.80;;
71435;SDS011;59251;51.326;12.370;2023-10-08T11:08:20;8.68;;;2.50;;
71435;SDS011;59251;51.326;12.370;2023-10-08T11:10:49;11.32;;;2.95;;
71435;SDS011;59251;51.326;12.370;2023-10-08T11:13:18;9.10;;;2.80;;
71435;SDS011;59251;51.326;12.370;2023-10-08T11:15:46;8.80;;;3.03;;
71435;SDS011;59251;51.326;12.370;2023-10-08T11:18:18;9.85;;;2.47;;
71435;SDS011;59251;51.326;12.370;2023-10-08T11:20:48;16.15;;;3.15;;
71435;SDS011;59251;51.326;12.370;2023-10-08T11:23:32;8.00;;;2.63;;
71435;SDS011;59251;51.326;12.370;2023-10-08T11:26:03;8.93;;;2.92;;
71435;SDS011;59251;51.326;12.370;2023-10-08T11:28:31;9.13;;;2.50;;
71435;SDS011;59251;51.326;12.370;2023-10-08T11:31:00;9.45;;;3.17;;
71435;SDS011;59251;51.326;12.370;2023-10-08T11:33:36;9.85;;;2.80;;
71435;SDS011;59251;51.326;12.370;2023-10-08T11:36:04;11.07;;;3.38;;
71435;SDS011;59251;51.326;12.370;2023-10-08T11:38:38;10.38;;;2.70;;
71435;SDS011;59251;51.326;12.370;2023-10-08T11:41:10;8.00;;;2.38;;
71435;SDS011;59251;51.326;12.370;2023-10-08T11:43:46;9.68;;;2.60;;
71435;SDS011;59251;51.326;12.370;2023-10-08T11:46:22;7.65;;;2.47;;
71435;SDS011;59251;51.326;12.370;2023-10-08T11:48:52;10.95;;;2.53;;
71435;SDS011;59251;51.326;12.370;2023-10-08T11:51:22;8.55;;;2.25;;
71435;SDS011;59251;51.326;12.370;2023-10-08T11:53:49;9.83;;;2.93;;
71435;SDS011;59251;51.326;12.370;2023-10-08T11:56:18;13.35;;;3.05;;
71435;SDS011;59251;51.326;12.370;2023-10-08T11:58:48;7.90;;;2.22;;
71435;SDS011;59251;51.326;12.370;2023-10-08T12:01:16;9.82;;;2.28;;
71435;SDS011;59251;51.326;12.370;2023-10-08T12:03:44;9.25;;;2.40;;
71435;SDS011;59251;51.326;12.370;2023-10-08T12:06:11;8.30;;;2.10;;
71435;SDS011;59251;51.326;12.370;2023-10-08T12:08:41;11.32;;;3.00;;
71435;SDS011;59251;51.326;12.370;2023-10-08T12:11:11;9.00;;;2.25;;
71435;SDS011;59251;51.326;12.370;2023-10-08T12:13:40;11.20;;;2.80;;
71435;SDS011;59251;51.326;12.370;2023-10-08T12:16:13;9.77;;;2.30;;
71435;SDS011;59251;51.326;12.370;2023-10-08T12:18:46;7.50;;;2.03;;
71435;SDS011;59251;51.326;12.370;2023-10-08T12:21:18;10.35;;;2.33;;
71435;SDS011;59251;51.326;12.370;2023-10-08T12:23:45;10.88;;;2.67;;
71435;SDS011;59251;51.326;12.370;2023-10-08T12:26:13;8.05;;;2.38;;
71435;SDS011;59251;51.326;12.370;2023-10-08T12:28:45;9.68;;;2.50;;
71435;SDS011;59251;51.326;12.370;2023-10-08T12:31:13;9.87;;;2.20;;
71435;SDS011;59251;51.326;12.370;2023-10-08T12:33:41;11.80;;;2.35;;
71435;SDS011;59251;51.326;12.370;2023-10-08T12:36:10;9.07;;;2.47;;
71435;SDS011;59251;51.326;12.370;2023-10-08T12:38:36;10.15;;;2.33;;
71435;SDS011;59251;51.326;12.370;2023-10-08T12:41:03;11.07;;;2.10;;
71435;SDS011;59251;51.326;12.370;2023-10-08T12:43:37;11.13;;;2.20;;
71435;SDS011;59251;51.326;12.370;2023-10-08T12:46:08;9.80;;;2.03;;
71435;SDS011;59251;51.326;12.370;2023-10-08T12:48:43;7.03;;;1.80;;
71435;SDS011;59251;51.326;12.370;2023-10-08T12:51:13;9.25;;;2.10;;
71435;SDS011;59251;51.326;12.370;2023-10-08T12:53:42;12.02;;;2.60;;
71435;SDS011;59251;51.326;12.370;2023-10-08T12:56:16;9.57;;;1.87;;
71435;SDS011;59251;51.326;12.370;2023-10-08T12:58:46;8.95;;;2.08;;
71435;SDS011;59251;51.326;12.370;2023-10-08T13:01:16;7.90;;;2.10;;
71435;SDS011;59251;51.326;12.370;2023-10-08T13:03:43;7.78;;;2.13;;
71435;SDS011;59251;51.326;12.370;2023-10-08T13:06:14;9.40;;;2.20;;
71435;SDS011;59251;51.326;12.370;2023-10-08T13:08:47;8.33;;;1.90;;
71435;SDS011;59251;51.326;12.370;2023-10-08T13:11:18;8.63;;;2.00;;
71435;SDS011;59251;51.326;12.370;2023-10-08T13:13:48;10.13;;;2.10;;
71435;SDS011;59251;51.326;12.370;2023-10-08T13:16:17;8.65;;;1.98;;
71435;SDS011;59251;51.326;12.370;2023-10-08T13:18:46;8.25;;;1.85;;
71435;SDS011;59251;51.326;12.370;2023-10-08T13:21:13;7.40;;;1.70;;
71435;SDS011;59251;51.326;12.370;2023-10-08T13:23:40;11.07;;;2.00;;
71435;SDS011;59251;51.326;12.370;2023-10-08T13:26:07;8.50;;;2.03;;
71435;SDS011;59251;51.326;12.370;2023-10-08T13:28:34;8.52;;;2.45;;
71435;SDS011;59251;51.326;12.370;2023-10-08T13:31:02;8.68;;;1.90;;
71435;SDS011;59251;51.326;12.370;2023-10-08T13:33:37;7.13;;;2.03;;
71435;SDS011;59251;51.326;12.370;2023-10-08T13:36:08;9.65;;;2.22;;
71435;SDS011;59251;51.326;12.370;2023-10-08T13:38:35;8.40;;;2.33;;
71435;SDS011;59251;51.326;12.370;2023-10-08T13:41:03;9.38;;;2.03;;
71435;SDS011;59251;51.326;12.370;2023-10-08T13:43:31;7.72;;;2.10;;
71435;SDS011;59251;51.326;12.370;2023-10-08T13:46:03;6.83;;;1.73;;
71435;SDS011;59251;51.326;12.370;2023-10-08T13:48:32;8.30;;;2.28;;
71435;SDS011;59251;51.326;12.370;2023-10-08T13:51:02;8.13;;;2.38;;
71435;SDS011;59251;51.326;12.370;2023-10-08T13:53:32;9.98;;;2.30;;
71435;SDS011;59251;51.326;12.370;2023-10-08T13:56:02;8.18;;;2.10;;
71435;SDS011;59251;51.326;12.370;2023-10-08T13:58:29;10.33;;;2.37;;
71435;SDS011;59251;51.326;12.370;2023-10-08T14:00:59;9.30;;;2.13;;
71435;SDS011;59251;51.326;12.370;2023-10-08T14:03:26;8.13;;;2.20;;
71435;SDS011;59251;51.326;12.370;2023-10-08T14:05:56;8.35;;;2.00;;
71435;SDS011;59251;51.326;12.370;2023-10-08T14:08:30;6.65;;;2.05;;
71435;SDS011;59251;51.326;12.370;2023-10-08T14:10:57;7.00;;;1.97;;
71435;SDS011;59251;51.326;12.370;2023-10-08T14:13:28;10.05;;;2.03;;
71435;SDS011;59251;51.326;12.370;2023-10-08T14:15:56;7.28;;;2.03;;
71435;SDS011;59251;51.326;12.370;2023-10-08T14:18:23;10.60;;;2.38;;
71435;SDS011;59251;51.326;12.370;2023-10-08T14:20:53;7.97;;;2.50;;
71435;SDS011;59251;51.326;12.370;2023-10-08T14:23:21;9.13;;;2.50;;
71435;SDS011;59251;51.326;12.370;2023-10-08T14:25:51;8.32;;;2.40;;
71435;SDS011;59251;51.326;12.370;2023-10-08T14:28:28;8.00;;;2.30;;
71435;SDS011;59251;51.326;12.370;2023-10-08T14:31:06;9.75;;;2.28;;
71435;SDS011;59251;51.326;12.370;2023-10-08T14:33:33;11.25;;;2.53;;
71435;SDS011;59251;51.326;12.370;2023-10-08T14:36:07;12.03;;;2.90;;
71435;SDS011;59251;51.326;12.370;2023-10-08T14:38:52;8.75;;;2.55;;
71435;SDS011;59251;51.326;12.370;2023-10-08T14:41:37;8.88;;;2.50;;
71435;SDS011;59251;51.326;12.370;2023-10-08T14:44:21;8.65;;;2.50;;
71435;SDS011;59251;51.326;12.370;2023-10-08T14:46:49;7.70;;;2.10;;
71435;SDS011;59251;51.326;12.370;2023-10-08T14:49:16;9.37;;;2.07;;
71435;SDS011;59251;51.326;12.370;2023-10-08T14:51:43;9.45;;;2.38;;
71435;SDS011;59251;51.326;12.370;2023-10-08T14:54:08;9.35;;;2.00;;